createdAt,value
2022-11-28T00:01:34.317Z,16.17
2022-11-28T00:04:02.297Z,22.60
2022-11-28T00:06:30.158Z,20.42
2022-11-28T00:08:59.707Z,19.15
2022-11-28T00:11:28.010Z,16.38
2022-11-28T00:13:55.977Z,18.77
2022-11-28T00:16:24.501Z,17.08
2022-11-28T00:18:54.556Z,18.10
2022-11-28T00:21:23.401Z,18.05
2022-11-28T00:23:52.082Z,18.02
2022-11-28T00:26:36.506Z,20.00
2022-11-28T00:29:05.773Z,18.42
2022-11-28T00:31:42.069Z,18.75
2022-11-28T00:34:13.154Z,20.48
2022-11-28T00:36:43.401Z,18.33
2022-11-28T00:39:11.217Z,19.55
2022-11-28T00:41:38.780Z,16.85
2022-11-28T00:44:06.606Z,16.17
2022-11-28T00:46:34.249Z,14.43
2022-11-28T00:49:01.825Z,17.58
2022-11-28T00:51:32.295Z,14.77
2022-11-28T00:54:02.847Z,19.42
2022-11-28T00:56:38.011Z,17.25
2022-11-28T00:59:07.180Z,16.77
2022-11-28T01:01:39.367Z,20.10
2022-11-28T01:04:10.685Z,17.40
2022-11-28T01:06:45.593Z,19.88
2022-11-28T01:09:21.266Z,19.00
2022-11-28T01:14:21.479Z,16.42
2022-11-28T01:16:49.431Z,19.10
2022-11-28T01:19:17.452Z,19.20
2022-11-28T01:21:45.268Z,25.02
2022-11-28T01:24:13.533Z,16.50
2022-11-28T01:26:42.687Z,21.67
2022-11-28T01:29:11.001Z,17.90
2022-11-28T01:31:39.077Z,15.63
2022-11-28T01:34:06.760Z,18.30
2022-11-28T01:36:34.349Z,19.20
2022-11-28T01:39:01.936Z,19.05
2022-11-28T01:41:29.765Z,16.85
2022-11-28T01:44:12.346Z,18.95
2022-11-28T01:46:40.236Z,18.05
2022-11-28T01:49:16.226Z,18.30
2022-11-28T01:51:52.707Z,16.83
2022-11-28T01:54:24.302Z,14.60
2022-11-28T01:57:16.331Z,14.43
2022-11-28T01:59:54.426Z,16.80
2022-11-28T02:02:39.866Z,15.38
2022-11-28T02:05:08.433Z,19.10
2022-11-28T02:07:37.353Z,17.92
2022-11-28T02:10:09.363Z,16.95
2022-11-28T02:13:11.056Z,17.80
2022-11-28T02:15:53.535Z,20.45
2022-11-28T02:18:26.887Z,17.15
2022-11-28T02:21:28.485Z,17.58
2022-11-28T02:24:14.866Z,19.08
2022-11-28T02:27:20.264Z,17.77
2022-11-28T02:30:06.468Z,22.55
2022-11-28T02:33:00.634Z,19.92
2022-11-28T02:35:33.917Z,20.27
2022-11-28T02:38:10.473Z,19.10
2022-11-28T02:41:06.983Z,22.88
2022-11-28T02:44:04.191Z,20.50
2022-11-28T02:47:01.925Z,21.70
2022-11-28T02:49:48.862Z,27.60
2022-11-28T02:52:28.933Z,23.30
2022-11-28T02:54:57.220Z,21.60
2022-11-28T02:57:38.607Z,24.58
2022-11-28T03:00:25.049Z,23.15
2022-11-28T03:03:25.514Z,26.83
2022-11-28T03:06:09.902Z,23.77
2022-11-28T03:09:33.491Z,22.98
2022-11-28T03:12:53.465Z,25.17
2022-11-28T03:15:31.048Z,25.13
2022-11-28T03:18:34.925Z,27.63
2022-11-28T03:21:28.825Z,26.73
2022-11-28T03:24:06.973Z,28.40
2022-11-28T03:27:12.200Z,27.55
2022-11-28T03:30:19.606Z,29.25
2022-11-28T03:32:52.043Z,31.95
2022-11-28T03:35:24.325Z,34.90
2022-11-28T03:38:04.900Z,32.33
2022-11-28T03:40:42.159Z,33.88
2022-11-28T03:43:15.635Z,33.83
2022-11-28T03:45:49.539Z,37.30
2022-11-28T03:48:24.881Z,33.92
2022-11-28T03:51:32.000Z,36.92
2022-11-28T03:54:14.647Z,38.85
2022-11-28T03:57:07.609Z,39.17
2022-11-28T03:59:55.224Z,33.70
2022-11-28T04:02:56.366Z,38.58
2022-11-28T04:05:45.870Z,39.88
2022-11-28T04:09:01.307Z,41.30
2022-11-28T04:11:39.960Z,41.78
2022-11-28T04:14:23.321Z,47.97
2022-11-28T04:17:16.979Z,44.42
2022-11-28T04:19:53.887Z,54.03
2022-11-28T04:22:28.832Z,49.20
2022-11-28T04:25:08.756Z,44.88
2022-11-28T04:27:41.950Z,46.15
2022-11-28T04:30:11.677Z,45.50
2022-11-28T04:32:48.558Z,51.78
2022-11-28T04:35:40.024Z,45.75
2022-11-28T04:38:09.710Z,52.47
2022-11-28T04:41:10.913Z,52.88
2022-11-28T04:43:50.833Z,59.20
2022-11-28T04:46:27.094Z,52.72
2022-11-28T04:48:54.936Z,56.17
2022-11-28T04:51:56.998Z,63.78
2022-11-28T04:54:45.622Z,56.83
2022-11-28T04:57:40.753Z,59.28
2022-11-28T05:00:13.830Z,63.53
2022-11-28T05:02:44.689Z,60.15
2022-11-28T05:05:17.705Z,66.38
2022-11-28T05:07:45.765Z,65.80
2022-11-28T05:10:15.194Z,69.63
2022-11-28T05:12:43.072Z,68.22
2022-11-28T05:15:11.552Z,61.42
2022-11-28T05:17:42.209Z,63.47
2022-11-28T05:20:10.866Z,61.92
2022-11-28T05:22:38.478Z,58.20
2022-11-28T05:25:06.774Z,61.72
2022-11-28T05:27:34.393Z,61.67
2022-11-28T05:30:02.221Z,60.95
2022-11-28T05:32:31.229Z,54.75
2022-11-28T05:34:59.151Z,53.60
2022-11-28T05:37:26.905Z,56.78
2022-11-28T05:39:54.702Z,50.85
2022-11-28T05:42:23.057Z,56.70
2022-11-28T05:44:50.851Z,45.60
2022-11-28T05:47:18.457Z,51.80
2022-11-28T05:49:47.443Z,51.38
2022-11-28T05:52:15.098Z,42.65
2022-11-28T05:54:42.752Z,40.10
2022-11-28T05:57:10.320Z,46.20
2022-11-28T05:59:37.924Z,41.72
2022-11-28T06:02:05.712Z,37.00
2022-11-28T06:04:33.598Z,44.88
2022-11-28T06:07:01.276Z,40.72
2022-11-28T06:09:28.876Z,37.67
2022-11-28T06:11:56.655Z,42.50
2022-11-28T06:14:24.256Z,42.60
2022-11-28T06:16:51.952Z,37.85
2022-11-28T06:19:19.728Z,37.47
2022-11-28T06:21:50.428Z,34.55
2022-11-28T06:24:18.444Z,38.53
2022-11-28T06:26:46.713Z,39.20
2022-11-28T06:29:14.274Z,36.15
2022-11-28T06:31:41.939Z,35.55
2022-11-28T06:34:13.030Z,31.10
2022-11-28T06:36:41.031Z,35.83
2022-11-28T06:39:12.796Z,35.25
2022-11-28T06:41:40.547Z,35.35
2022-11-28T06:44:09.070Z,37.83
2022-11-28T06:46:36.862Z,34.13
2022-11-28T06:49:04.653Z,33.10
2022-11-28T06:51:32.277Z,31.38
2022-11-28T06:53:59.964Z,30.45
2022-11-28T06:56:27.588Z,31.98
2022-11-28T06:58:57.998Z,42.45
2022-11-28T07:01:29.248Z,36.47
2022-11-28T07:03:57.378Z,35.53
2022-11-28T07:06:27.291Z,37.05
2022-11-28T07:08:57.886Z,42.83
2022-11-28T07:11:29.597Z,33.15
2022-11-28T07:14:00.434Z,37.50
2022-11-28T07:16:31.462Z,39.08
2022-11-28T07:19:00.522Z,39.05
2022-11-28T07:21:29.091Z,33.25
2022-11-28T07:23:59.368Z,35.97
2022-11-28T07:26:27.393Z,36.03
2022-11-28T07:28:57.904Z,33.40
2022-11-28T07:31:28.848Z,37.97
2022-11-28T07:33:56.497Z,33.00
2022-11-28T07:36:28.468Z,32.90
2022-11-28T07:39:02.199Z,38.60
2022-11-28T07:41:30.160Z,32.33
2022-11-28T07:44:00.982Z,39.75
2022-11-28T07:46:31.074Z,37.15
2022-11-28T07:48:59.023Z,33.17
2022-11-28T07:51:33.447Z,33.67
2022-11-28T07:54:02.535Z,38.47
2022-11-28T07:57:04.650Z,33.55
2022-11-28T07:59:23.013Z,34.95
2022-11-28T08:01:50.740Z,38.40
2022-11-28T08:04:18.465Z,37.63
2022-11-28T08:06:46.069Z,28.27
2022-11-28T08:09:13.721Z,31.38
2022-11-28T08:11:42.200Z,27.13
2022-11-28T08:14:10.034Z,29.48
2022-11-28T08:16:41.207Z,28.65
2022-11-28T08:19:08.895Z,33.80
2022-11-28T08:21:38.053Z,30.60
2022-11-28T08:24:08.016Z,31.50
2022-11-28T08:26:36.717Z,28.23
2022-11-28T08:29:04.441Z,28.80
2022-11-28T08:31:38.441Z,27.83
2022-11-28T08:34:09.758Z,30.35
2022-11-28T08:36:37.818Z,31.05
2022-11-28T08:39:23.373Z,28.98
2022-11-28T08:41:58.956Z,28.90
2022-11-28T08:44:30.402Z,33.45
2022-11-28T08:46:58.297Z,29.17
2022-11-28T08:49:25.888Z,29.90
2022-11-28T08:51:53.531Z,24.92
2022-11-28T08:54:21.142Z,29.60
2022-11-28T08:56:48.791Z,33.40
2022-11-28T08:59:16.417Z,24.13
2022-11-28T09:01:44.108Z,28.38
2022-11-28T09:04:11.857Z,24.40
2022-11-28T09:06:40.381Z,32.50
2022-11-28T09:09:11.214Z,25.92
2022-11-28T09:11:39.212Z,26.33
2022-11-28T09:14:07.450Z,29.75
2022-11-28T09:16:35.076Z,28.50
2022-11-28T09:19:03.433Z,33.63
2022-11-28T09:21:31.009Z,33.85
2022-11-28T09:23:59.616Z,34.05
2022-11-28T09:26:27.368Z,40.38
2022-11-28T09:28:54.977Z,45.15
2022-11-28T09:31:23.371Z,43.58
2022-11-28T09:33:51.146Z,43.72
2022-11-28T09:36:24.894Z,46.53
2022-11-28T09:38:52.792Z,45.72
2022-11-28T09:41:51.942Z,49.15
2022-11-28T09:44:27.317Z,49.63
2022-11-28T09:47:00.802Z,44.67
2022-11-28T09:49:40.781Z,48.58
2022-11-28T09:52:30.712Z,47.20
2022-11-28T09:55:04.220Z,44.75
2022-11-28T09:57:48.355Z,52.40
2022-11-28T10:00:19.036Z,47.58
2022-11-28T10:03:01.864Z,46.75
2022-11-28T10:05:40.761Z,49.92
2022-11-28T10:08:23.573Z,44.75
2022-11-28T10:11:21.010Z,46.30
2022-11-28T10:14:53.111Z,44.03
2022-11-28T10:17:35.641Z,46.53
2022-11-28T10:20:14.771Z,56.75
2022-11-28T10:23:08.343Z,56.60
2022-11-28T10:25:45.859Z,58.28
2022-11-28T10:28:39.276Z,63.78
2022-11-28T10:31:45.310Z,61.33
2022-11-28T10:34:27.283Z,55.42
2022-11-28T10:37:04.227Z,64.88
2022-11-28T10:39:31.804Z,62.80
2022-11-28T10:42:41.129Z,66.47
2022-11-28T10:45:14.877Z,65.82
2022-11-28T10:48:39.015Z,80.60
2022-11-28T10:51:44.716Z,60.30
2022-11-28T10:55:00.784Z,67.20
2022-11-28T10:57:43.950Z,73.43
2022-11-28T11:00:13.876Z,65.15
2022-11-28T11:03:02.272Z,78.70
2022-11-28T11:05:37.088Z,66.38
2022-11-28T11:08:19.355Z,66.07
2022-11-28T11:10:51.274Z,69.65
2022-11-28T11:13:26.903Z,62.35
2022-11-28T11:18:46.659Z,67.53
2022-11-28T11:21:25.170Z,66.88
2022-11-28T11:24:16.778Z,63.60
2022-11-28T11:26:47.815Z,52.92
2022-11-28T11:29:35.599Z,53.92
2022-11-28T11:32:06.386Z,57.25
2022-11-28T11:34:44.643Z,54.15
2022-11-28T11:37:23.341Z,59.55
2022-11-28T11:39:53.426Z,52.05
2022-11-28T11:42:31.296Z,51.78
2022-11-28T11:45:34.188Z,64.35
2022-11-28T11:48:03.970Z,60.63
2022-11-28T11:50:33.126Z,54.80
2022-11-28T11:53:13.777Z,57.75
2022-11-28T11:55:50.128Z,53.97
2022-11-28T11:58:52.351Z,53.85
2022-11-28T12:01:21.616Z,67.20
2022-11-28T12:03:57.858Z,72.88
2022-11-28T12:06:35.961Z,56.58
2022-11-28T12:09:28.386Z,55.63
2022-11-28T12:12:25.835Z,48.85
2022-11-28T12:14:53.444Z,55.60
2022-11-28T12:17:48.951Z,57.25
2022-11-28T12:20:46.420Z,50.03
2022-11-28T12:23:47.887Z,58.95
2022-11-28T12:26:55.466Z,61.83
2022-11-28T12:29:54.236Z,56.50
2022-11-28T12:32:55.218Z,54.22
2022-11-28T12:35:42.458Z,64.45
2022-11-28T12:38:36.900Z,53.80
2022-11-28T12:41:32.799Z,58.53
2022-11-28T12:44:27.425Z,59.72
2022-11-28T12:47:11.896Z,62.70
2022-11-28T12:50:03.949Z,61.20
2022-11-28T12:52:49.974Z,55.85
2022-11-28T12:55:43.152Z,53.00
2022-11-28T12:58:27.380Z,60.55
2022-11-28T13:01:45.224Z,63.17
2022-11-28T13:04:56.854Z,56.78
2022-11-28T13:08:03.424Z,59.35
2022-11-28T13:10:56.556Z,53.20
2022-11-28T13:13:43.321Z,58.55
2022-11-28T13:16:27.357Z,53.22
2022-11-28T13:19:06.158Z,56.42
2022-11-28T13:21:58.643Z,58.40
2022-11-28T13:24:38.761Z,45.95
2022-11-28T13:27:49.023Z,58.30
2022-11-28T13:30:26.873Z,59.08
2022-11-28T13:33:57.459Z,57.28
2022-11-28T13:39:42.718Z,44.97
2022-11-28T13:42:59.458Z,52.85
2022-11-28T13:45:32.248Z,52.05
2022-11-28T13:48:22.683Z,42.70
2022-11-28T13:51:18.372Z,44.70
2022-11-28T13:53:49.593Z,45.28
2022-11-28T13:56:25.535Z,49.10
2022-11-28T13:58:58.168Z,47.22
2022-11-28T14:01:29.158Z,50.28
2022-11-28T14:04:02.466Z,49.40
2022-11-28T14:06:46.822Z,54.20
2022-11-28T14:09:17.560Z,44.25
2022-11-28T14:12:28.282Z,53.28
2022-11-28T14:15:45.417Z,48.75
2022-11-28T14:18:56.813Z,47.33
2022-11-28T14:21:48.640Z,44.33
2022-11-28T14:24:16.191Z,44.15
2022-11-28T14:26:44.857Z,42.92
2022-11-28T14:29:28.734Z,47.88
2022-11-28T14:32:27.831Z,47.20
2022-11-28T14:34:48.851Z,38.53
2022-11-28T14:37:19.720Z,49.70
2022-11-28T14:39:50.384Z,41.67
2022-11-28T14:42:58.958Z,37.60
2022-11-28T14:45:41.102Z,36.50
2022-11-28T14:48:15.731Z,33.45
2022-11-28T14:50:56.230Z,32.85
2022-11-28T14:53:43.203Z,30.77
2022-11-28T14:56:14.828Z,31.80
2022-11-28T14:58:48.893Z,36.95
2022-11-28T15:01:49.293Z,36.65
2022-11-28T15:04:19.783Z,31.00
2022-11-28T15:06:50.998Z,30.80
2022-11-28T15:09:50.818Z,29.00
2022-11-28T15:12:49.298Z,38.45
2022-11-28T15:15:17.645Z,33.28
2022-11-28T15:17:51.349Z,30.30
2022-11-28T15:20:47.576Z,33.28
2022-11-28T15:23:38.351Z,45.80
2022-11-28T15:26:07.154Z,36.60
2022-11-28T15:28:36.266Z,29.48
2022-11-28T15:31:05.879Z,34.15
2022-11-28T15:33:34.364Z,29.58
2022-11-28T15:36:25.583Z,33.22
2022-11-28T15:38:54.737Z,39.60
2022-11-28T15:41:26.830Z,33.38
2022-11-28T15:43:56.213Z,32.15
2022-11-28T15:46:30.095Z,26.17
2022-11-28T15:48:58.507Z,28.50
2022-11-28T15:51:35.640Z,26.38
2022-11-28T15:54:17.996Z,27.13
2022-11-28T15:56:59.775Z,29.92
2022-11-28T15:59:28.987Z,33.33
2022-11-28T16:02:15.685Z,38.83
2022-11-28T16:04:45.349Z,32.05
2022-11-28T16:07:16.061Z,32.05
2022-11-28T16:09:56.715Z,31.52
2022-11-28T16:12:25.460Z,30.40
2022-11-28T16:14:56.203Z,32.55
2022-11-28T16:17:33.835Z,37.72
2022-11-28T16:20:03.749Z,27.83
2022-11-28T16:22:37.060Z,15.43
2022-11-28T16:25:25.122Z,19.88
2022-11-28T16:27:53.388Z,23.70
2022-11-28T16:30:48.111Z,31.25
2022-11-28T16:33:42.487Z,42.22
2022-11-28T16:36:16.301Z,38.35
2022-11-28T16:38:45.188Z,36.25
2022-11-28T16:41:21.326Z,39.42
2022-11-28T16:44:15.028Z,38.53
2022-11-28T16:46:55.673Z,32.67
2022-11-28T16:49:38.685Z,27.20
2022-11-28T16:52:21.553Z,29.92
2022-11-28T16:54:56.539Z,29.30
2022-11-28T16:57:28.853Z,23.13
2022-11-28T17:00:00.507Z,30.50
2022-11-28T17:02:28.334Z,37.13
2022-11-28T17:04:55.959Z,31.17
2022-11-28T17:07:24.624Z,27.40
2022-11-28T17:09:52.375Z,29.95
2022-11-28T17:12:39.813Z,26.33
2022-11-28T17:15:14.774Z,28.40
2022-11-28T17:17:42.753Z,25.98
2022-11-28T17:20:13.135Z,27.02
2022-11-28T17:22:47.552Z,23.98
2022-11-28T17:25:18.312Z,22.90
2022-11-28T17:27:48.000Z,25.38
2022-11-28T17:30:18.656Z,19.75
2022-11-28T17:32:49.198Z,18.42
2022-11-28T17:35:31.178Z,16.17
2022-11-28T17:37:58.766Z,18.35
2022-11-28T17:40:37.521Z,21.38
2022-11-28T17:43:07.433Z,26.17
2022-11-28T17:45:36.271Z,20.27
2022-11-28T17:48:03.985Z,21.27
2022-11-28T17:50:32.273Z,23.90
2022-11-28T17:52:59.933Z,23.30
2022-11-28T17:55:28.969Z,19.67
2022-11-28T17:57:56.792Z,18.95
2022-11-28T18:00:24.810Z,18.40
2022-11-28T18:02:52.881Z,14.98
2022-11-28T18:05:20.842Z,18.63
2022-11-28T18:07:48.571Z,21.30
2022-11-28T18:10:16.352Z,20.67
2022-11-28T18:12:44.006Z,18.48
2022-11-28T18:15:11.863Z,17.05
2022-11-28T18:17:39.422Z,16.83
2022-11-28T18:20:08.574Z,17.15
2022-11-28T18:22:36.550Z,17.23
2022-11-28T18:25:05.194Z,12.55
2022-11-28T18:27:34.489Z,15.57
2022-11-28T18:30:02.313Z,14.40
2022-11-28T18:32:30.202Z,9.60
2022-11-28T18:34:58.257Z,17.85
2022-11-28T18:37:28.309Z,7.18
2022-11-28T18:39:55.953Z,9.27
2022-11-28T18:42:23.762Z,6.90
2022-11-28T18:44:51.425Z,6.65
2022-11-28T18:47:19.466Z,7.22
2022-11-28T18:49:47.264Z,10.20
2022-11-28T18:52:14.987Z,11.20
2022-11-28T18:54:43.392Z,9.75
2022-11-28T18:57:11.466Z,10.15
2022-11-28T18:59:39.249Z,7.18
2022-11-28T19:02:07.488Z,7.57
2022-11-28T19:04:36.383Z,7.50
2022-11-28T19:07:04.115Z,8.75
2022-11-28T19:09:32.531Z,9.32
2022-11-28T19:12:00.168Z,13.43
2022-11-28T19:14:28.694Z,13.43
2022-11-28T19:16:57.188Z,12.32
2022-11-28T19:19:24.823Z,11.93
2022-11-28T19:21:52.421Z,16.48
2022-11-28T19:24:20.276Z,17.00
2022-11-28T19:26:48.018Z,22.23
2022-11-28T19:29:16.130Z,19.10
2022-11-28T19:31:43.836Z,16.55
2022-11-28T19:34:17.173Z,20.55
2022-11-28T19:36:50.091Z,19.05
2022-11-28T19:39:22.427Z,24.50
2022-11-28T19:41:52.503Z,19.33
2022-11-28T19:44:24.686Z,21.33
2022-11-28T19:46:54.190Z,22.08
2022-11-28T19:49:24.438Z,16.80
2022-11-28T19:51:54.480Z,10.10
2022-11-28T19:54:22.317Z,10.07
2022-11-28T19:56:51.095Z,13.23
2022-11-28T19:59:19.388Z,8.18
2022-11-28T20:01:50.146Z,13.63
2022-11-28T20:04:19.500Z,12.68
2022-11-28T20:06:47.323Z,19.85
2022-11-28T20:09:15.110Z,18.13
2022-11-28T20:11:45.113Z,13.48
2022-11-28T20:14:20.187Z,8.55
2022-11-28T20:16:48.542Z,10.87
2022-11-28T20:19:17.859Z,13.02
2022-11-28T20:21:46.685Z,7.15
2022-11-28T20:24:16.173Z,9.75
2022-11-28T20:26:46.079Z,8.45
2022-11-28T20:29:17.527Z,8.68
2022-11-28T20:31:47.674Z,10.27
2022-11-28T20:34:18.978Z,11.55
2022-11-28T20:36:53.498Z,13.63
2022-11-28T20:39:21.687Z,7.60
2022-11-28T20:41:49.362Z,7.85
2022-11-28T20:44:18.778Z,9.00
2022-11-28T20:46:46.768Z,7.88
2022-11-28T20:49:17.365Z,10.90
2022-11-28T20:51:45.836Z,7.95
2022-11-28T20:54:14.437Z,7.95
2022-11-28T20:57:19.148Z,12.75
2022-11-28T20:59:32.858Z,9.70
2022-11-28T21:02:00.567Z,7.72
2022-11-28T21:04:28.244Z,10.90
2022-11-28T21:06:55.879Z,11.50
2022-11-28T21:09:23.523Z,13.50
2022-11-28T21:11:57.473Z,10.80
2022-11-28T21:14:28.060Z,11.45
2022-11-28T21:16:56.526Z,14.15
2022-11-28T21:19:24.617Z,13.82
2022-11-28T21:21:52.394Z,16.13
2022-11-28T21:24:20.336Z,10.10
2022-11-28T21:26:52.904Z,14.73
2022-11-28T21:29:22.880Z,15.43
2022-11-28T21:31:51.043Z,13.10
2022-11-28T21:34:19.511Z,14.50
2022-11-28T21:36:47.529Z,13.20
2022-11-28T21:39:19.936Z,17.42
2022-11-28T21:41:47.988Z,10.93
2022-11-28T21:44:15.744Z,10.35
2022-11-28T21:46:43.532Z,10.32
2022-11-28T21:49:12.538Z,10.52
2022-11-28T21:51:41.478Z,10.15
2022-11-28T21:54:13.524Z,10.05
2022-11-28T21:56:41.879Z,10.65
2022-11-28T21:59:09.632Z,11.48
2022-11-28T22:01:37.483Z,39.80
2022-11-28T22:04:06.495Z,11.23
2022-11-28T22:06:34.180Z,11.93
2022-11-28T22:09:09.047Z,10.35
2022-11-28T22:11:38.376Z,10.85
2022-11-28T22:14:06.541Z,12.30
2022-11-28T22:16:34.964Z,11.80
2022-11-28T22:19:04.106Z,14.73
2022-11-28T22:24:21.474Z,10.52
2022-11-28T22:26:50.087Z,12.05
2022-11-28T22:29:18.922Z,12.98
2022-11-28T22:31:46.866Z,11.77
2022-11-28T22:34:14.569Z,15.70
2022-11-28T22:36:42.222Z,10.48
2022-11-28T22:39:11.590Z,17.20
2022-11-28T22:41:39.432Z,12.15
2022-11-28T22:44:09.522Z,11.60
2022-11-28T22:46:38.080Z,16.38
2022-11-28T22:49:06.948Z,12.70
2022-11-28T22:51:35.480Z,12.18
2022-11-28T22:54:04.674Z,14.27
2022-11-28T22:56:34.137Z,10.02
2022-11-28T22:59:04.873Z,10.40
2022-11-28T23:01:34.197Z,13.80
2022-11-28T23:04:02.645Z,13.73
2022-11-28T23:06:33.858Z,11.10
2022-11-28T23:09:05.873Z,11.80
2022-11-28T23:11:37.049Z,9.15
2022-11-28T23:14:06.351Z,13.20
2022-11-28T23:16:40.149Z,10.73
2022-11-28T23:19:13.518Z,10.75
2022-11-28T23:21:44.514Z,11.05
2022-11-28T23:24:21.307Z,14.02
2022-11-28T23:26:51.846Z,10.38
2022-11-28T23:29:20.315Z,29.48
2022-11-28T23:31:49.716Z,12.55
2022-11-28T23:34:17.418Z,12.52
2022-11-28T23:36:47.319Z,48.13
2022-11-28T23:39:19.400Z,8.10
2022-11-28T23:41:47.865Z,8.57
2022-11-28T23:44:18.144Z,8.05
2022-11-28T23:46:47.290Z,7.40
2022-11-28T23:49:15.410Z,9.88
2022-11-28T23:51:43.487Z,8.10
2022-11-28T23:54:12.263Z,9.13
2022-11-28T23:56:41.885Z,9.57
2022-11-28T23:59:11.765Z,9.45
